Time;durP1;ratioP1;P1;durP2;ratioP2;P2;SDS_P1;SDS_P2;PMS_P1;PMS_P2;Temp;Humidity;BMP_temperature;BMP_pressure;BME280_temperature;BME280_humidity;BME280_pressure;Samples;Min_cycle;Max_cycle;Signal;HPM_P1;HPM_P2
2021/01/20 09:15:06;;;;;;;;;11.00;10.20;;;;;;;;1575356;27;83419;-89
2021/01/20 09:15:53;;;;;;;;;9.75;9.00;;;;;;;;1565088;27;86338;-89
2021/01/20 09:16:38;;;;;;;;;10.60;10.20;;;;;;;;1557124;28;84862;-88
2021/01/20 09:17:23;;;;;;;;;6.25;6.25;;;;;;;;1548888;28;84291;-86
2021/01/20 09:18:08;;;;;;;;;12.25;7.75;;;;;;;;1552421;28;84513;-87
2021/01/20 09:18:54;;;;;;;;;7.50;7.50;;;;;;;;1555208;28;83569;-87
2021/01/20 09:19:39;;;;;;;;;10.75;8.00;;;;;;;;1555375;28;85750;-87
2021/01/20 09:20:24;;;;;;;;;9.00;9.00;;;;;;;;1553183;28;84543;-87
2021/01/20 09:21:10;;;;;;;;;7.50;7.00;;;;;;;;1552456;28;83514;-88
2021/01/20 09:21:55;;;;;;;;;10.50;10.50;;;;;;;;1548994;28;85264;-86
2021/01/20 09:22:40;;;;;;;;;9.50;8.00;;;;;;;;1549055;28;85024;-87
2021/01/20 09:23:26;;;;;;;;;8.50;8.50;;;;;;;;1555591;28;83397;-88
2021/01/20 09:24:11;;;;;;;;;7.75;7.75;;;;;;;;1559868;28;85050;-88
2021/01/20 09:24:57;;;;;;;;;7.25;7.25;;;;;;;;1559491;28;84901;-88
2021/01/20 09:25:42;;;;;;;;;9.20;7.60;;;;;;;;1553245;28;86154;-88
2021/01/20 09:26:28;;;;;;;;;7.75;6.50;;;;;;;;1549061;28;86949;-88
2021/01/20 09:27:14;;;;;;;;;7.50;7.50;;;;;;;;1549236;28;85610;-87
2021/01/20 09:28:00;;;;;;;;;9.20;9.20;;;;;;;;1549553;28;84813;-88
2021/01/20 09:28:45;;;;;;;;;10.00;10.00;;;;;;;;1549461;28;86443;-88
2021/01/20 09:29:31;;;;;;;;;8.75;8.75;;;;;;;;1552966;28;84612;-87
2021/01/20 09:30:16;;;;;;;;;9.75;8.25;;;;;;;;1554999;28;85666;-87
2021/01/20 09:31:01;;;;;;;;;9.25;8.00;;;;;;;;1559415;27;85836;-87
2021/01/20 09:31:46;;;;;;;;;8.75;8.50;;;;;;;;1565619;27;86870;-88
2021/01/20 09:32:38;;;;;;;;;8.00;7.25;;;;;;;;1561037;27;86550;-87
2021/01/20 09:33:24;;;;;;;;;7.60;7.60;;;;;;;;1563056;27;84166;-87
2021/01/20 09:34:09;;;;;;;;;11.75;10.75;;;;;;;;1556249;28;84958;-87
2021/01/20 09:34:54;;;;;;;;;6.75;5.50;;;;;;;;1559178;28;86208;-88
2021/01/20 09:35:39;;;;;;;;;9.50;8.00;;;;;;;;1559258;28;85701;-87
2021/01/20 09:36:25;;;;;;;;;7.75;6.75;;;;;;;;1561887;28;86224;-86
2021/01/20 09:37:10;;;;;;;;;7.00;7.00;;;;;;;;1553162;28;85874;-88
2021/01/20 09:37:55;;;;;;;;;4.25;3.00;;;;;;;;1553080;28;86352;-88
2021/01/20 09:38:42;;;;;;;;;5.00;4.50;;;;;;;;1553188;28;86822;-87
2021/01/20 09:39:27;;;;;;;;;6.40;6.40;;;;;;;;1555149;28;85889;-87
2021/01/20 09:40:13;;;;;;;;;7.25;6.75;;;;;;;;1554888;27;86595;-87
2021/01/20 09:41:02;;;;;;;;;7.20;5.80;;;;;;;;1555775;28;83406;-86
2021/01/20 09:41:47;;;;;;;;;10.60;10.00;;;;;;;;1553135;28;85471;-87
2021/01/20 09:42:33;;;;;;;;;13.50;8.00;;;;;;;;1552649;28;84969;-88
2021/01/20 09:43:21;;;;;;;;;12.25;9.50;;;;;;;;1553525;28;85213;-88
2021/01/20 09:44:06;;;;;;;;;11.20;7.60;;;;;;;;1553384;28;84545;-87
2021/01/20 09:44:51;;;;;;;;;10.50;8.25;;;;;;;;1547242;28;85574;-87
2021/01/20 09:45:37;;;;;;;;;7.00;7.00;;;;;;;;1549093;28;86821;-88
2021/01/20 09:46:22;;;;;;;;;5.33;5.33;;;;;;;;1553218;28;84621;-88
2021/01/20 09:47:07;;;;;;;;;11.00;6.00;;;;;;;;1547077;28;83914;-87
2021/01/20 09:47:54;;;;;;;;;9.00;7.67;;;;;;;;1549084;28;85080;-87
2021/01/20 09:48:39;;;;;;;;;7.25;6.25;;;;;;;;1553378;28;86003;-87
2021/01/20 09:49:24;;;;;;;;;6.67;6.67;;;;;;;;1551846;28;86392;-88
2021/01/20 09:50:10;;;;;;;;;11.67;6.00;;;;;;;;1555425;28;86771;-87
2021/01/20 09:50:55;;;;;;;;;8.00;8.00;;;;;;;;1563089;27;84277;-86
2021/01/20 09:51:41;;;;;;;;;5.00;5.00;;;;;;;;1557369;28;85354;-87
2021/01/20 09:52:27;;;;;;;;;4.00;4.00;;;;;;;;1553352;28;86544;-87
2021/01/20 09:53:12;;;;;;;;;8.50;8.00;;;;;;;;1553418;28;85537;-87
2021/01/20 09:53:57;;;;;;;;;7.00;7.00;;;;;;;;1553398;28;83096;-88
2021/01/20 09:54:43;;;;;;;;;8.33;7.67;;;;;;;;1553406;28;84053;-86
2021/01/20 09:55:28;;;;;;;;;9.00;7.00;;;;;;;;1552951;28;86402;-86
2021/01/20 09:56:13;;;;;;;;;8.67;8.67;;;;;;;;1549078;28;86490;-87
2021/01/20 09:56:59;;;;;;;;;10.33;8.00;;;;;;;;1549092;28;85441;-87
2021/01/20 09:57:44;;;;;;;;;6.33;6.33;;;;;;;;1554993;28;86095;-87
2021/01/20 09:58:29;;;;;;;;;8.67;7.00;;;;;;;;1554978;27;83307;-88
2021/01/20 09:59:14;;;;;;;;;8.33;6.33;;;;;;;;1554926;28;83624;-87
2021/01/20 10:00:01;;;;;;;;;12.00;8.00;;;;;;;;1553164;28;83630;-88
2021/01/20 10:00:47;;;;;;;;;6.25;6.25;;;;;;;;1549344;28;83519;-87
2021/01/20 10:01:32;;;;;;;;;10.00;7.33;;;;;;;;1555723;28;83652;-86
2021/01/20 10:02:17;;;;;;;;;9.00;6.67;;;;;;;;1553345;28;83536;-87
2021/01/20 10:03:06;;;;;;;;;7.00;5.67;;;;;;;;1554902;28;83707;-87
2021/01/20 10:03:52;;;;;;;;;13.00;7.00;;;;;;;;1559407;28;83532;-87
2021/01/20 10:04:37;;;;;;;;;9.67;8.00;;;;;;;;1552930;28;83738;-87
2021/01/20 10:05:22;;;;;;;;;7.00;7.00;;;;;;;;1548787;28;83377;-87
2021/01/20 10:06:07;;;;;;;;;7.00;7.00;;;;;;;;1548831;28;83333;-87
2021/01/20 10:06:56;;;;;;;;;9.00;7.33;;;;;;;;1548748;28;83576;-87
2021/01/20 10:07:41;;;;;;;;;12.00;9.25;;;;;;;;1555350;28;83177;-87
2021/01/20 10:08:26;;;;;;;;;9.33;7.67;;;;;;;;1559579;28;83183;-88
2021/01/20 10:09:12;;;;;;;;;7.00;7.00;;;;;;;;1559015;28;83474;-87
2021/01/20 10:09:59;;;;;;;;;9.00;8.00;;;;;;;;1558969;28;83641;-90
2021/01/20 10:10:44;;;;;;;;;8.25;8.00;;;;;;;;1562164;28;83073;-86
2021/01/20 10:11:29;;;;;;;;;9.33;7.00;;;;;;;;1559939;28;83745;-85
2021/01/20 10:12:15;;;;;;;;;10.33;8.67;;;;;;;;1558413;28;83515;-87
2021/01/20 10:13:00;;;;;;;;;10.67;8.67;;;;;;;;1551882;28;83358;-86
2021/01/20 10:13:45;;;;;;;;;8.33;7.33;;;;;;;;1555869;28;83231;-87
2021/01/20 10:14:30;;;;;;;;;8.67;8.33;;;;;;;;1556708;27;84449;-87
2021/01/20 10:15:16;;;;;;;;;7.33;7.00;;;;;;;;1567266;27;83453;-88
2021/01/20 10:16:01;;;;;;;;;8.67;8.67;;;;;;;;1558188;27;83628;-87
2021/01/20 10:16:46;;;;;;;;;10.00;7.00;;;;;;;;1552885;28;83638;-88
2021/01/20 10:17:32;;;;;;;;;8.00;5.67;;;;;;;;1546849;28;83411;-89
2021/01/20 10:18:17;;;;;;;;;8.00;6.67;;;;;;;;1542555;28;83600;-89
2021/01/20 10:19:02;;;;;;;;;10.67;7.67;;;;;;;;1542440;28;83062;-87
2021/01/20 10:19:48;;;;;;;;;11.67;9.67;;;;;;;;1557125;28;83674;-87
2021/01/20 10:20:33;;;;;;;;;8.33;8.33;;;;;;;;1559562;28;83430;-87
2021/01/20 10:21:18;;;;;;;;;8.00;7.33;;;;;;;;1555067;28;85308;-87
2021/01/20 10:22:03;;;;;;;;;7.00;7.00;;;;;;;;1559607;27;85574;-87
2021/01/20 10:22:49;;;;;;;;;7.33;5.67;;;;;;;;1559472;28;84939;-88
2021/01/20 10:23:34;;;;;;;;;8.00;8.00;;;;;;;;1560422;28;83755;-86
2021/01/20 10:24:19;;;;;;;;;12.33;8.67;;;;;;;;1557394;27;83861;-87
2021/01/20 10:25:04;;;;;;;;;8.67;7.67;;;;;;;;1552882;28;86075;-86
2021/01/20 10:25:51;;;;;;;;;10.00;9.00;;;;;;;;1552237;28;85847;-87
2021/01/20 10:26:37;;;;;;;;;8.50;8.00;;;;;;;;1548531;28;86455;-87
2021/01/20 10:27:22;;;;;;;;;6.00;6.00;;;;;;;;1556299;28;86426;-85
2021/01/20 10:28:08;;;;;;;;;7.00;7.00;;;;;;;;1556309;28;86444;-86
2021/01/20 10:28:53;;;;;;;;;8.00;8.00;;;;;;;;1550463;28;85435;-87
2021/01/20 10:29:38;;;;;;;;;11.00;8.33;;;;;;;;1551617;28;85145;-86
2021/01/20 10:30:23;;;;;;;;;11.00;9.00;;;;;;;;1555351;28;86548;-86
2021/01/20 10:31:09;;;;;;;;;11.00;9.67;;;;;;;;1556255;28;84056;-85
2021/01/20 10:31:55;;;;;;;;;9.00;7.33;;;;;;;;1549452;28;85062;-86
2021/01/20 10:32:40;;;;;;;;;8.00;7.50;;;;;;;;1549106;28;83622;-87
2021/01/20 10:33:25;;;;;;;;;9.67;7.33;;;;;;;;1561810;27;86212;-87
2021/01/20 10:34:11;;;;;;;;;9.67;6.00;;;;;;;;1561898;27;83890;-87
2021/01/20 10:34:57;;;;;;;;;10.75;8.50;;;;;;;;1554086;28;86575;-86
2021/01/20 10:35:42;;;;;;;;;6.67;6.00;;;;;;;;1551971;28;85078;-86
2021/01/20 10:36:28;;;;;;;;;7.00;5.33;;;;;;;;1561325;28;84085;-88
2021/01/20 10:37:13;;;;;;;;;7.33;6.33;;;;;;;;1563071;27;84487;-87
2021/01/20 10:37:59;;;;;;;;;8.33;6.00;;;;;;;;1558981;28;86433;-87
2021/01/20 10:38:44;;;;;;;;;5.33;5.33;;;;;;;;1560417;28;84022;-88
2021/01/20 10:39:29;;;;;;;;;6.67;6.67;;;;;;;;1550914;28;83857;-87
2021/01/20 10:40:15;;;;;;;;;13.00;9.33;;;;;;;;1554414;28;87692;-88
2021/01/20 10:41:00;;;;;;;;;10.00;8.67;;;;;;;;1555677;28;86528;-89
2021/01/20 10:41:45;;;;;;;;;9.00;7.33;;;;;;;;1548457;28;85285;-87
2021/01/20 10:42:31;;;;;;;;;10.67;8.33;;;;;;;;1548526;28;84261;-88
2021/01/20 10:43:16;;;;;;;;;10.00;7.67;;;;;;;;1545881;28;84306;-87
2021/01/20 10:44:02;;;;;;;;;7.33;6.67;;;;;;;;1550905;28;85417;-86
2021/01/20 10:44:47;;;;;;;;;11.33;10.00;;;;;;;;1552069;28;83941;-88
2021/01/20 10:45:32;;;;;;;;;7.33;7.00;;;;;;;;1554410;28;83183;-87
2021/01/20 10:46:18;;;;;;;;;8.33;7.67;;;;;;;;1550309;28;84157;-89
2021/01/20 10:47:03;;;;;;;;;10.00;9.67;;;;;;;;1550194;28;84071;-88
2021/01/20 10:47:48;;;;;;;;;7.33;7.33;;;;;;;;1551764;28;85252;-89
2021/01/20 10:48:34;;;;;;;;;9.33;8.00;;;;;;;;1549607;28;87193;-88
2021/01/20 10:49:19;;;;;;;;;7.00;7.00;;;;;;;;1550009;28;86758;-89
2021/01/20 10:50:04;;;;;;;;;8.00;7.00;;;;;;;;1545456;28;86452;-87
2021/01/20 10:50:50;;;;;;;;;10.67;9.00;;;;;;;;1551442;28;84105;-88
2021/01/20 10:51:35;;;;;;;;;9.33;7.00;;;;;;;;1556187;28;87112;-88
2021/01/20 10:52:20;;;;;;;;;9.67;7.33;;;;;;;;1555653;28;87090;-88
2021/01/20 10:53:05;;;;;;;;;11.33;10.00;;;;;;;;1556048;28;83994;-87
2021/01/20 10:53:51;;;;;;;;;8.67;7.33;;;;;;;;1549360;28;87450;-88
2021/01/20 10:54:36;;;;;;;;;8.00;7.67;;;;;;;;1551444;28;84399;-87
2021/01/20 10:55:21;;;;;;;;;11.67;9.00;;;;;;;;1545887;28;86924;-87
2021/01/20 10:56:06;;;;;;;;;8.67;8.67;;;;;;;;1549566;28;85684;-88
2021/01/20 10:56:52;;;;;;;;;10.00;8.00;;;;;;;;1555236;28;86997;-86
2021/01/20 10:57:37;;;;;;;;;9.00;9.00;;;;;;;;1551727;28;87048;-87
2021/01/20 10:58:22;;;;;;;;;7.67;7.00;;;;;;;;1547270;28;85190;-87
2021/01/20 10:59:07;;;;;;;;;9.00;9.00;;;;;;;;1545567;28;87137;-88
2021/01/20 10:59:54;;;;;;;;;10.00;8.67;;;;;;;;1543632;28;87114;-87
2021/01/20 11:00:39;;;;;;;;;8.75;6.50;;;;;;;;1539284;28;86779;-87
2021/01/20 11:01:24;;;;;;;;;7.67;7.67;;;;;;;;1548227;28;83964;-87
2021/01/20 11:02:10;;;;;;;;;9.00;9.00;;;;;;;;1555920;28;84078;-87
2021/01/20 11:02:55;;;;;;;;;7.67;7.67;;;;;;;;1558487;28;86700;-87
2021/01/20 11:03:40;;;;;;;;;12.00;9.67;;;;;;;;1556141;28;85041;-87
2021/01/20 11:04:26;;;;;;;;;7.00;7.00;;;;;;;;1556514;28;84738;-87
2021/01/20 11:05:11;;;;;;;;;8.33;8.33;;;;;;;;1556337;28;86034;-87
2021/01/20 11:05:56;;;;;;;;;8.00;6.67;;;;;;;;1554372;28;84542;-88
2021/01/20 11:06:41;;;;;;;;;8.33;8.00;;;;;;;;1550467;28;83089;-86
2021/01/20 11:07:27;;;;;;;;;5.00;5.00;;;;;;;;1551944;28;85203;-87
2021/01/20 11:08:12;;;;;;;;;14.00;11.67;;;;;;;;1548815;28;84033;-87
2021/01/20 11:08:59;;;;;;;;;10.00;9.00;;;;;;;;1550011;28;86381;-87
2021/01/20 11:09:44;;;;;;;;;7.00;7.00;;;;;;;;1548001;28;84378;-87
2021/01/20 11:10:30;;;;;;;;;10.33;9.67;;;;;;;;1550792;28;83284;-87
2021/01/20 11:11:15;;;;;;;;;8.33;7.33;;;;;;;;1554493;28;85739;-87
2021/01/20 11:12:00;;;;;;;;;8.00;7.67;;;;;;;;1546077;28;85163;-86
2021/01/20 11:12:47;;;;;;;;;7.67;7.67;;;;;;;;1551084;28;83477;-87
2021/01/20 11:13:33;;;;;;;;;7.00;7.00;;;;;;;;1560339;28;82960;-85
2021/01/20 11:14:19;;;;;;;;;9.25;8.00;;;;;;;;1554485;28;85619;-86
2021/01/20 11:15:04;;;;;;;;;10.00;9.00;;;;;;;;1548181;28;85095;-87
2021/01/20 11:15:50;;;;;;;;;8.00;8.00;;;;;;;;1549993;28;84276;-87
2021/01/20 11:16:35;;;;;;;;;13.33;11.33;;;;;;;;1559096;27;85484;-87
2021/01/20 11:17:20;;;;;;;;;10.00;9.33;;;;;;;;1559775;28;85341;-86
2021/01/20 11:18:06;;;;;;;;;8.00;8.00;;;;;;;;1551697;28;83586;-87
2021/01/20 11:18:51;;;;;;;;;13.33;9.67;;;;;;;;1544561;28;84807;-87
2021/01/20 11:19:36;;;;;;;;;9.00;9.00;;;;;;;;1554175;28;84355;-87
2021/01/20 11:20:21;;;;;;;;;11.33;8.33;;;;;;;;1554095;28;86255;-87
2021/01/20 11:21:07;;;;;;;;;10.33;9.00;;;;;;;;1545988;28;84772;-87
2021/01/20 11:21:53;;;;;;;;;8.00;7.33;;;;;;;;1543817;28;83477;-87
2021/01/20 11:22:38;;;;;;;;;9.75;9.75;;;;;;;;1556264;28;85260;-87
2021/01/20 11:23:27;;;;;;;;;13.00;10.33;;;;;;;;1554635;28;85521;-88
2021/01/20 11:24:17;;;;;;;;;9.50;9.00;;;;;;;;1548001;28;85092;-87
2021/01/20 11:25:03;;;;;;;;;8.75;7.50;;;;;;;;1551003;28;85631;-86
2021/01/20 11:25:52;;;;;;;;;8.67;8.33;;;;;;;;1547869;28;85168;-87
2021/01/20 11:26:37;;;;;;;;;11.00;9.00;;;;;;;;1548209;28;83653;-87
2021/01/20 11:27:22;;;;;;;;;9.67;9.33;;;;;;;;1547969;28;85236;-87
2021/01/20 11:28:07;;;;;;;;;9.00;8.00;;;;;;;;1541925;28;86094;-86
2021/01/20 11:28:53;;;;;;;;;9.00;8.00;;;;;;;;1545940;28;86085;-87
2021/01/20 11:29:38;;;;;;;;;8.00;6.00;;;;;;;;1544097;28;84856;-87
2021/01/20 11:30:23;;;;;;;;;8.33;6.00;;;;;;;;1543908;28;87944;-87
2021/01/20 11:31:08;;;;;;;;;7.67;6.33;;;;;;;;1543896;28;85154;-85
2021/01/20 11:31:54;;;;;;;;;9.00;9.00;;;;;;;;1543786;28;85073;-88
2021/01/20 11:32:39;;;;;;;;;11.00;8.00;;;;;;;;1556306;28;84129;-87
2021/01/20 11:33:24;;;;;;;;;10.00;8.00;;;;;;;;1556549;28;86526;-87
2021/01/20 11:34:09;;;;;;;;;8.33;6.33;;;;;;;;1552175;28;86173;-87
2021/01/20 11:34:55;;;;;;;;;12.00;9.67;;;;;;;;1549964;28;85356;-87
2021/01/20 11:35:40;;;;;;;;;10.33;7.33;;;;;;;;1552156;28;86385;-87
2021/01/20 11:36:25;;;;;;;;;10.00;8.67;;;;;;;;1548190;28;85031;-87
2021/01/20 11:37:10;;;;;;;;;15.33;11.00;;;;;;;;1547992;28;86239;-87
2021/01/20 11:37:58;;;;;;;;;11.00;10.00;;;;;;;;1542818;28;86555;-87
2021/01/20 11:38:44;;;;;;;;;7.25;7.25;;;;;;;;1548097;28;84998;-85
2021/01/20 11:39:29;;;;;;;;;8.00;8.00;;;;;;;;1542464;28;86636;-85
2021/01/20 11:40:14;;;;;;;;;11.67;10.00;;;;;;;;1543767;28;83439;-85
2021/01/20 11:40:59;;;;;;;;;5.67;5.33;;;;;;;;1547943;28;83750;-87
2021/01/20 11:41:45;;;;;;;;;8.33;8.33;;;;;;;;1554296;28;86925;-87
2021/01/20 11:42:30;;;;;;;;;11.00;11.00;;;;;;;;1554275;28;85369;-88
2021/01/20 11:43:15;;;;;;;;;8.33;8.00;;;;;;;;1552363;28;85163;-86
2021/01/20 11:44:02;;;;;;;;;11.33;10.00;;;;;;;;1554178;28;86059;-89
2021/01/20 11:44:47;;;;;;;;;7.00;6.25;;;;;;;;1547954;28;86264;-87
2021/01/20 11:45:32;;;;;;;;;13.33;10.00;;;;;;;;1544181;28;85238;-87
2021/01/20 11:46:20;;;;;;;;;9.67;8.00;;;;;;;;1546217;28;86178;-87
2021/01/20 11:47:06;;;;;;;;;9.00;9.00;;;;;;;;1544060;28;85802;-87
2021/01/20 11:47:51;;;;;;;;;12.00;12.00;;;;;;;;1550483;28;87314;-87
2021/01/20 11:48:36;;;;;;;;;10.33;9.33;;;;;;;;1554124;28;85067;-87
2021/01/20 11:49:21;;;;;;;;;10.67;10.67;;;;;;;;1554481;28;84397;-87
2021/01/20 11:50:07;;;;;;;;;7.33;7.00;;;;;;;;1554698;28;83268;-87
2021/01/20 11:50:52;;;;;;;;;10.67;10.67;;;;;;;;1554111;28;85226;-88
2021/01/20 11:51:38;;;;;;;;;10.33;8.67;;;;;;;;1548200;28;86844;-87
2021/01/20 11:52:23;;;;;;;;;11.25;8.00;;;;;;;;1550138;28;87179;-87
2021/01/20 11:53:09;;;;;;;;;6.67;5.00;;;;;;;;1553746;28;86131;-87
2021/01/20 11:53:54;;;;;;;;;8.00;7.00;;;;;;;;1554053;28;83463;-87
2021/01/20 11:54:39;;;;;;;;;8.00;7.33;;;;;;;;1549899;28;86015;-87
2021/01/20 11:55:25;;;;;;;;;9.33;9.00;;;;;;;;1548188;28;84503;-87
2021/01/20 11:56:10;;;;;;;;;12.00;12.00;;;;;;;;1549942;28;87868;-87
2021/01/20 11:56:55;;;;;;;;;9.67;8.33;;;;;;;;1554008;28;84501;-87
2021/01/20 11:57:41;;;;;;;;;12.33;9.00;;;;;;;;1548255;28;85697;-87
2021/01/20 11:58:26;;;;;;;;;8.33;8.33;;;;;;;;1547369;28;86987;-88
2021/01/20 11:59:12;;;;;;;;;9.00;9.00;;;;;;;;1543503;28;86607;-86
2021/01/20 11:59:57;;;;;;;;;9.00;8.33;;;;;;;;1550522;28;84285;-87
2021/01/20 12:00:42;;;;;;;;;12.33;9.67;;;;;;;;1550549;28;87023;-86
2021/01/20 12:01:31;;;;;;;;;12.33;10.67;;;;;;;;1555280;28;86823;-87
2021/01/20 12:02:16;;;;;;;;;10.75;10.25;;;;;;;;1554605;28;86604;-87
2021/01/20 12:03:02;;;;;;;;;8.33;8.33;;;;;;;;1555094;28;85704;-87
2021/01/20 12:03:47;;;;;;;;;8.25;8.25;;;;;;;;1548769;28;85849;-87
2021/01/20 12:04:33;;;;;;;;;9.33;8.33;;;;;;;;1544059;28;85103;-88
2021/01/20 12:05:18;;;;;;;;;8.00;6.00;;;;;;;;1543932;28;87178;-87
2021/01/20 12:06:03;;;;;;;;;9.67;9.00;;;;;;;;1547923;28;85443;-87
2021/01/20 12:06:49;;;;;;;;;6.67;6.67;;;;;;;;1550227;28;84293;-86
2021/01/20 12:07:34;;;;;;;;;11.67;10.33;;;;;;;;1556905;28;87314;-87
2021/01/20 12:08:19;;;;;;;;;10.00;8.67;;;;;;;;1547791;28;85738;-87
2021/01/20 12:09:05;;;;;;;;;11.00;9.00;;;;;;;;1550185;28;83493;-86
2021/01/20 12:09:50;;;;;;;;;6.33;6.00;;;;;;;;1554465;28;83587;-85
2021/01/20 12:10:35;;;;;;;;;12.00;10.67;;;;;;;;1554254;28;85231;-86
2021/01/20 12:11:21;;;;;;;;;10.67;9.67;;;;;;;;1547969;28;83857;-86
2021/01/20 12:12:07;;;;;;;;;8.50;7.25;;;;;;;;1549900;28;85486;-86
2021/01/20 12:12:52;;;;;;;;;12.67;9.67;;;;;;;;1553864;28;85383;-86
2021/01/20 12:13:37;;;;;;;;;9.33;8.67;;;;;;;;1548014;28;84919;-88
2021/01/20 12:14:22;;;;;;;;;10.67;8.33;;;;;;;;1543541;28;85420;-85
2021/01/20 12:15:08;;;;;;;;;8.67;7.67;;;;;;;;1549780;28;83567;-86
2021/01/20 12:15:54;;;;;;;;;13.00;11.00;;;;;;;;1549774;28;84131;-85
2021/01/20 12:16:40;;;;;;;;;8.25;8.25;;;;;;;;1554017;28;86514;-86
2021/01/20 12:17:25;;;;;;;;;10.00;7.67;;;;;;;;1551855;28;85172;-86
2021/01/20 12:18:10;;;;;;;;;11.67;9.33;;;;;;;;1549937;28;85178;-86
2021/01/20 12:18:55;;;;;;;;;9.67;9.00;;;;;;;;1554082;28;85011;-85
2021/01/20 12:19:40;;;;;;;;;13.00;9.33;;;;;;;;1554098;28;84462;-85
2021/01/20 12:20:26;;;;;;;;;10.33;8.33;;;;;;;;1547707;28;83979;-86
2021/01/20 12:21:11;;;;;;;;;12.33;10.00;;;;;;;;1549655;28;83736;-85
2021/01/20 12:21:56;;;;;;;;;9.00;7.33;;;;;;;;1553915;28;86505;-86
2021/01/20 12:22:41;;;;;;;;;11.33;9.67;;;;;;;;1553812;28;84075;-86
2021/01/20 12:23:27;;;;;;;;;9.00;9.00;;;;;;;;1547863;28;85160;-86
2021/01/20 12:24:12;;;;;;;;;10.67;7.33;;;;;;;;1549479;28;83779;-87
2021/01/20 12:24:57;;;;;;;;;10.67;9.67;;;;;;;;1553815;28;83269;-86
2021/01/20 12:25:42;;;;;;;;;14.67;11.67;;;;;;;;1554329;28;83121;-87
2021/01/20 12:26:27;;;;;;;;;14.00;11.00;;;;;;;;1553947;28;83992;-87
2021/01/20 12:27:13;;;;;;;;;10.33;8.67;;;;;;;;1553830;28;83749;-85
2021/01/20 12:27:58;;;;;;;;;13.00;10.67;;;;;;;;1553847;28;83352;-87
2021/01/20 12:28:43;;;;;;;;;11.33;9.00;;;;;;;;1554357;28;86339;-87
2021/01/20 12:29:28;;;;;;;;;17.67;11.67;;;;;;;;1557043;28;85389;-86
2021/01/20 12:30:14;;;;;;;;;10.67;8.00;;;;;;;;1553592;28;85461;-86
2021/01/20 12:30:59;;;;;;;;;10.00;10.00;;;;;;;;1547670;28;86871;-86
2021/01/20 12:31:45;;;;;;;;;11.00;11.00;;;;;;;;1547614;28;85345;-86
2021/01/20 12:32:30;;;;;;;;;11.33;9.67;;;;;;;;1543523;28;84552;-86
2021/01/20 12:33:15;;;;;;;;;10.00;7.33;;;;;;;;1549824;28;84035;-86
2021/01/20 12:34:00;;;;;;;;;10.67;9.33;;;;;;;;1553835;28;84867;-86
2021/01/20 12:34:46;;;;;;;;;8.67;7.33;;;;;;;;1553955;28;86246;-86
2021/01/20 12:35:31;;;;;;;;;12.67;12.67;;;;;;;;1553795;28;86480;-86
2021/01/20 12:36:17;;;;;;;;;10.33;9.00;;;;;;;;1553730;28;83918;-86
2021/01/20 12:37:02;;;;;;;;;11.50;9.75;;;;;;;;1549951;28;85648;-87
2021/01/20 12:37:47;;;;;;;;;12.00;9.33;;;;;;;;1551616;28;85501;-86
2021/01/20 12:38:33;;;;;;;;;15.00;10.00;;;;;;;;1545515;28;86557;-86
2021/01/20 12:39:18;;;;;;;;;13.33;12.00;;;;;;;;1553968;28;83864;-87
2021/01/20 12:40:03;;;;;;;;;11.33;9.67;;;;;;;;1549931;28;86566;-86
2021/01/20 12:40:49;;;;;;;;;9.00;9.00;;;;;;;;1554182;28;83131;-86
2021/01/20 12:41:34;;;;;;;;;10.33;8.00;;;;;;;;1554072;28;87336;-87
2021/01/20 12:42:19;;;;;;;;;11.00;11.00;;;;;;;;1547742;28;85340;-87
2021/01/20 12:43:04;;;;;;;;;11.00;9.67;;;;;;;;1547166;28;86367;-86
2021/01/20 12:43:50;;;;;;;;;9.00;8.00;;;;;;;;1543704;28;86458;-86
2021/01/20 12:44:35;;;;;;;;;12.33;8.67;;;;;;;;1549628;28;83917;-87
2021/01/20 12:45:20;;;;;;;;;12.00;9.33;;;;;;;;1549807;28;85405;-87
2021/01/20 12:46:06;;;;;;;;;11.00;10.00;;;;;;;;1547964;28;85148;-87
2021/01/20 12:46:51;;;;;;;;;9.00;7.00;;;;;;;;1544067;28;86614;-87
2021/01/20 12:47:37;;;;;;;;;11.00;8.67;;;;;;;;1544384;28;85336;-87
2021/01/20 12:48:22;;;;;;;;;12.67;11.33;;;;;;;;1550284;28;83908;-87
2021/01/20 12:49:07;;;;;;;;;10.33;7.67;;;;;;;;1549419;28;86585;-87
2021/01/20 12:49:52;;;;;;;;;11.00;10.00;;;;;;;;1554714;28;84767;-86
2021/01/20 12:50:37;;;;;;;;;8.00;8.00;;;;;;;;1557046;28;85378;-87
2021/01/20 12:51:23;;;;;;;;;15.33;13.00;;;;;;;;1553362;28;87255;-87
2021/01/20 12:52:08;;;;;;;;;6.67;5.00;;;;;;;;1554014;28;86051;-87
2021/01/20 12:52:53;;;;;;;;;11.67;10.00;;;;;;;;1548093;28;86298;-86
2021/01/20 12:53:38;;;;;;;;;9.00;8.33;;;;;;;;1547751;28;86876;-87
2021/01/20 12:54:24;;;;;;;;;8.33;8.33;;;;;;;;1554360;28;83047;-87
2021/01/20 12:55:09;;;;;;;;;10.67;8.67;;;;;;;;1554072;28;86834;-86
2021/01/20 12:55:54;;;;;;;;;8.00;8.00;;;;;;;;1548133;28;87161;-86
2021/01/20 12:56:40;;;;;;;;;13.00;9.33;;;;;;;;1550037;28;84449;-87
2021/01/20 12:57:25;;;;;;;;;7.00;4.67;;;;;;;;1552464;28;84407;-88
2021/01/20 12:58:10;;;;;;;;;13.67;9.67;;;;;;;;1548247;28;87153;-87
2021/01/20 12:58:56;;;;;;;;;10.33;9.67;;;;;;;;1553014;28;85905;-87
2021/01/20 12:59:41;;;;;;;;;7.00;6.33;;;;;;;;1554460;28;84654;-87
2021/01/20 13:00:26;;;;;;;;;7.00;7.00;;;;;;;;1547845;28;84700;-87
2021/01/20 13:01:11;;;;;;;;;14.00;12.00;;;;;;;;1543587;28;84100;-87
2021/01/20 13:01:57;;;;;;;;;6.00;6.00;;;;;;;;1543661;28;87201;-87
2021/01/20 13:02:42;;;;;;;;;13.67;10.00;;;;;;;;1546082;28;86885;-87
2021/01/20 13:03:27;;;;;;;;;9.67;9.67;;;;;;;;1554966;28;85893;-87
2021/01/20 13:04:12;;;;;;;;;11.33;10.33;;;;;;;;1550205;28;86833;-87
2021/01/20 13:04:57;;;;;;;;;11.33;10.00;;;;;;;;1549634;28;86054;-86
2021/01/20 13:05:43;;;;;;;;;7.67;7.67;;;;;;;;1556126;28;83237;-87
2021/01/20 13:06:28;;;;;;;;;8.33;8.33;;;;;;;;1560273;28;86899;-88
2021/01/20 13:07:13;;;;;;;;;7.67;7.67;;;;;;;;1558869;28;87291;-88
2021/01/20 13:08:00;;;;;;;;;11.00;10.00;;;;;;;;1554031;28;84502;-88
2021/01/20 13:08:45;;;;;;;;;8.00;7.75;;;;;;;;1554249;28;83365;-88
2021/01/20 13:09:30;;;;;;;;;7.67;7.67;;;;;;;;1550324;28;85223;-87
2021/01/20 13:10:16;;;;;;;;;10.33;9.67;;;;;;;;1554090;28;86636;-87
2021/01/20 13:11:01;;;;;;;;;9.33;8.00;;;;;;;;1554077;28;86396;-87
2021/01/20 13:11:47;;;;;;;;;7.00;7.00;;;;;;;;1557371;28;86013;-86
2021/01/20 13:12:32;;;;;;;;;15.75;10.00;;;;;;;;1560081;28;83539;-86
2021/01/20 13:13:18;;;;;;;;;9.33;9.33;;;;;;;;1557716;28;83350;-87
2021/01/20 13:14:03;;;;;;;;;10.00;10.00;;;;;;;;1556708;28;85602;-87
2021/01/20 13:14:48;;;;;;;;;8.67;8.67;;;;;;;;1558604;28;85008;-87
2021/01/20 13:15:34;;;;;;;;;9.33;8.67;;;;;;;;1564065;28;83957;-87
2021/01/20 13:16:19;;;;;;;;;9.50;8.00;;;;;;;;1561876;28;84215;-87
2021/01/20 13:17:05;;;;;;;;;9.00;7.67;;;;;;;;1560917;28;85193;-86
2021/01/20 13:17:53;;;;;;;;;6.67;5.00;;;;;;;;1563004;28;84104;-87
2021/01/20 13:18:38;;;;;;;;;9.50;9.25;;;;;;;;1559455;28;83859;-86
2021/01/20 13:19:24;;;;;;;;;13.67;12.00;;;;;;;;1549340;28;83590;-87
2021/01/20 13:20:09;;;;;;;;;9.67;6.33;;;;;;;;1543921;28;84677;-88
2021/01/20 13:20:54;;;;;;;;;9.33;9.33;;;;;;;;1547662;28;83138;-87
2021/01/20 13:21:40;;;;;;;;;9.33;8.00;;;;;;;;1549809;28;84816;-88
2021/01/20 13:22:25;;;;;;;;;8.67;8.33;;;;;;;;1554051;28;83454;-88
2021/01/20 13:23:10;;;;;;;;;6.33;6.33;;;;;;;;1549976;28;84792;-88
2021/01/20 13:23:55;;;;;;;;;12.67;11.00;;;;;;;;1553963;28;85130;-87
2021/01/20 13:24:41;;;;;;;;;9.33;9.33;;;;;;;;1553628;28;86492;-87
2021/01/20 13:25:26;;;;;;;;;6.33;5.33;;;;;;;;1544979;28;85361;-87
2021/01/20 13:26:12;;;;;;;;;13.00;10.00;;;;;;;;1543442;28;84579;-87
2021/01/20 13:26:57;;;;;;;;;17.75;12.75;;;;;;;;1549139;28;85193;-87
2021/01/20 13:27:43;;;;;;;;;10.00;9.33;;;;;;;;1560067;28;86476;-87
2021/01/20 13:28:28;;;;;;;;;12.50;10.25;;;;;;;;1559871;28;84532;-88
2021/01/20 13:29:13;;;;;;;;;9.67;8.67;;;;;;;;1551506;28;86382;-88
2021/01/20 13:29:59;;;;;;;;;10.67;10.00;;;;;;;;1547841;28;85231;-87
2021/01/20 13:30:44;;;;;;;;;9.67;8.33;;;;;;;;1553665;28;86303;-87
2021/01/20 13:31:29;;;;;;;;;13.00;10.00;;;;;;;;1559959;28;85297;-87
2021/01/20 13:32:15;;;;;;;;;14.00;11.33;;;;;;;;1559569;28;85270;-87
2021/01/20 13:33:00;;;;;;;;;14.00;9.67;;;;;;;;1558091;28;83644;-86
2021/01/20 13:33:45;;;;;;;;;11.00;9.33;;;;;;;;1564956;27;85136;-87
2021/01/20 13:34:30;;;;;;;;;9.67;9.67;;;;;;;;1560653;28;84797;-87
2021/01/20 13:35:15;;;;;;;;;10.33;10.33;;;;;;;;1552108;28;86263;-88
2021/01/20 13:36:01;;;;;;;;;10.00;10.00;;;;;;;;1549621;28;86571;-88
2021/01/20 13:36:46;;;;;;;;;9.33;9.00;;;;;;;;1554118;28;83368;-87
2021/01/20 13:37:31;;;;;;;;;10.00;8.00;;;;;;;;1560377;27;86140;-88
2021/01/20 13:38:16;;;;;;;;;10.33;8.00;;;;;;;;1555708;28;86492;-87
2021/01/20 13:39:02;;;;;;;;;10.33;8.67;;;;;;;;1551653;28;86376;-86
2021/01/20 13:39:48;;;;;;;;;13.00;10.00;;;;;;;;1548144;28;86507;-88
2021/01/20 13:40:33;;;;;;;;;14.00;10.67;;;;;;;;1541519;28;85324;-87
2021/01/20 13:41:18;;;;;;;;;10.33;8.67;;;;;;;;1543894;28;86691;-88
2021/01/20 13:42:04;;;;;;;;;9.67;7.33;;;;;;;;1550026;28;85253;-88
2021/01/20 13:42:49;;;;;;;;;10.00;9.00;;;;;;;;1553278;28;87086;-87
2021/01/20 13:43:34;;;;;;;;;8.33;8.00;;;;;;;;1547564;28;85034;-87
2021/01/20 13:44:19;;;;;;;;;10.67;9.67;;;;;;;;1543591;28;85009;-87
2021/01/20 13:45:05;;;;;;;;;8.00;8.00;;;;;;;;1549658;28;83970;-87